Tinian, MP (96952)

5:31 PM ChST on July 31, 2016 (GMT +1000)
Red Cross-Airport | | Change Station

Elev 215 ft 15.13 °N, 145.72 °E | Updated 23 seconds ago

Scattered Clouds
Scattered Clouds
84.9 °F
Feels Like 93 °F
N
2.0
Wind Variable Wind from NE
Gusts 6.0 mph

Today
High -- | Low -- °F
--% Chance of Precip.
Yesterday
High -- | Low -- °F
Precip. -- in
Pressure 29.85 in
Visibility 10.0 miles
Clouds Scattered Clouds 2300 ft
Scattered Clouds 4500 ft
Heat Index 93 °F
Dew Point 75 °F
Humidity 72%
Rainfall Not available.
Snow Depth Not available.
5:59 AM 6:47 PM
Waning Crescent, 8% visible
METAR PGSN 310654Z 01005KT 10SM SCT023 SCT045 30/24 A2979 RMK AO2 SLP108 T03000244 $
Pressure 29.85 in
Visibility 10.0 miles
Clouds Scattered Clouds 2300 ft
Scattered Clouds 4500 ft
Heat Index 93 °F
Dew Point 75 °F
Humidity 72%
Rainfall Not available.
Snow Depth Not available.
5:59 AM 6:47 PM
Waning Crescent, 8% visible
METAR PGSN 310654Z 01005KT 10SM SCT023 SCT045 30/24 A2979 RMK AO2 SLP108 T03000244 $

10-Day Weather Forecast

Almanac

Astronomy

Jul. 31, 2016 Rise Set
Actual Time
Civil Twilight
Nautical Twilight
Astronomical Twilight
Moon
Length of Visible Light
Length of Day
Tomorrow will be .
, % of the Moon is Illuminated

Today's Extremes

State Highs State Lows

Community

WunderPhotos

Upload Photos

1,928,768 photos uploaded!

WunderBlog® & News

Nearby

Air Quality

  Air Quality AQ Index Pollutant
Not available.

Snow Depth

Station Depth Elevation

Earthquake Activity

City Distance Mag. Time & Date
Minimum magnitude displayed is 2.5.

Coastal Water Temperatures

Place Temperature

Stations

Nearby Weather Stations

Station Location Temp. Windchill Dew Point Humidity Wind Precip. Elev Updated Type
                   

Watches & Warnings

There are currently no watches in effect.